DW6399 Weather Reports


Display with metric or nautical units.
time (UTC)temp
F
wind
direction
speed
MPH
gust
MPH
rain 1hr
in
rain 24hr
in
rain mn
in
humidity
%
barometer
mb
20240614181804 54 293 4.0 9.0 0.00 0.31 0.08 83 1012.0
20240614180904 54 287 6.0 12.0 0.00 0.31 0.08 83 1011.9
20240614180004 55 295 7.0 14.0 0.00 0.31 0.08 83 1011.7
20240614175424 55 291 6.0 14.0 0.00 0.31 0.08 83 1011.8
20240614174504 56 300 5.0 9.0 0.00 0.31 0.08 83 1011.6
20240614173604 56 317 5.0 8.0 0.00 0.31 0.08 81 1011.4
20240614172725 57 323 3.0 8.0 0.00 0.31 0.08 80 1011.6
20240614171825 58 339 4.0 9.0 0.00 0.31 0.08 79 1011.4
20240614170904 58 332 8.0 13.0 0.00 0.31 0.08 79 1011.1
20240614170025 58 331 6.0 11.0 0.00 0.31 0.08 80 1011.0
20240614165404 57 336 4.0 8.0 0.00 0.31 0.08 79 1011.0
20240614164525 58 333 7.0 13.0 0.00 0.31 0.08 80 1010.9
20240614163604 58 335 6.0 13.0 0.00 0.31 0.08 79 1010.8
20240614162704 58 332 8.0 14.0 0.00 0.31 0.08 80 1010.9
20240614161805 58 326 8.0 13.0 0.00 0.31 0.08 82 1011.0
20240614160904 57 332 8.0 15.0 0.00 0.31 0.08 82 1010.9
20240614160004 57 331 8.0 12.0 0.00 0.31 0.08 84 1010.9
20240614155404 56 325 9.0 14.0 0.00 0.31 0.08 84 1010.9
20240614154504 56 323 11.0 17.0 0.00 0.31 0.08 84 1011.0
20240614153604 56 326 11.0 20.0 0.00 0.31 0.08 83 1011.1
20240614152724 56 324 10.0 15.0 0.00 0.31 0.08 87 1011.0
20240614151805 56 322 11.0 16.0 0.00 0.32 0.08 88 1011.0
20240614150905 56 323 11.0 16.0 0.02 0.32 0.08 89 1011.0
20240614150003 55 324 11.0 15.0 0.02 0.32 0.08 90 1010.9
20240614145404 55 320 9.0 18.0 0.04 0.32 0.08 89 1010.9
20240614144525 54 295 6.0 15.0 0.07 0.32 0.08 88 1011.1
20240614143603 54 281 6.0 12.0 0.07 0.32 0.08 85 1011.1
20240614142703 54 295 10.0 18.0 0.07 0.32 0.08 84 1010.9
20240614141825 54 294 8.0 20.0 0.07 0.32 0.08 83 1010.7
20240614140904 55 283 5.0 12.0 0.05 0.30 0.06 81 1010.9
20240614140004 59 235 5.0 13.0 0.05 0.30 0.06 73 1011.0
20240614135404 63 198 3.0 9.0 0.03 0.28 0.04 71 1011.1
20240614134504 65 198 2.0 7.0 0.00 0.25 0.01 64 1010.6
20240614133603 66 174 2.0 7.0 0.00 0.25 0.01 64 1010.6
20240614132704 66 167 3.0 8.0 0.00 0.25 0.01 61 1010.5
20240614131824 66 180 2.0 5.0 0.00 0.25 0.01 60 1010.4
20240614130904 66 172 3.0 9.0 0.00 0.25 0.01 59 1010.5
20240614130004 66 160 3.0 6.0 0.00 0.25 0.01 57 1010.4
20240614125403 66 229 3.0 7.0 0.00 0.25 0.01 59 1010.4
20240614124503 68 195 3.0 6.0 0.00 0.25 0.01 56 1010.6
20240614123603 67 184 4.0 10.0 0.00 0.25 0.01 58 1010.6
20240614122725 66 246 2.0 9.0 0.00 0.25 0.01 63 1010.6
20240614121803 65 281 3.0 6.0 0.00 0.25 0.01 61 1010.6
20240614120905 65 255 2.0 3.0 0.00 0.25 0.01 62 1010.7
20240614120004 66 163 3.0 7.0 0.00 0.25 0.01 60 1010.7
20240614115403 66 182 3.0 8.0 0.00 0.25 0.01 62 1010.8
20240614114503 66 189 2.0 8.0 0.00 0.25 0.01 62 1010.8
20240614113603 67 166 3.0 9.0 0.00 0.25 0.01 60 1010.9
20240614112705 68 164 5.0 10.0 0.00 0.25 0.01 59 1010.9
20240614111825 67 168 6.0 15.0 0.00 0.25 0.01 61 1011.0
20240614110925 67 156 5.0 11.0 0.00 0.25 0.01 61 1010.9
20240614110004 67 163 6.0 15.0 0.00 0.25 0.01 62 1010.9
20240614105404 67 152 7.0 15.0 0.00 0.25 0.01 63 1011.0
20240614104504 66 162 6.0 13.0 0.00 0.25 0.01 66 1011.0
20240614103625 65 158 6.0 11.0 0.00 0.25 0.01 67 1010.9
20240614102726 64 219 3.0 6.0 0.00 0.25 0.01 67 1011.1
20240614101803 65 173 3.0 8.0 0.00 0.25 0.01 65 1011.3
20240614100904 65 171 6.0 9.0 0.00 0.25 0.01 67 1011.2
20240614095403 65 210 3.0 8.0 0.00 0.25 0.01 66 1011.1
20240614094504 65 191 3.0 8.0 0.00 0.25 0.01 64 1011.2
20240614093604 64 190 3.0 9.0 0.00 0.25 0.01 65 1011.3
20240614092724 64 165 3.0 8.0 0.00 0.25 0.01 66 1011.4
20240614091804 64 184 3.0 8.0 0.00 0.25 0.01 68 1011.5
20240614090925 64 169 5.0 15.0 0.00 0.25 0.01 67 1011.5
20240614090004 64 180 5.0 11.0 0.00 0.25 0.01 67 1011.3
20240614085405 64 173 4.0 9.0 0.00 0.25 0.01 69 1011.4
20240614084524 63 177 3.0 9.0 0.00 0.25 0.01 73 1011.3
20240614083603 63 191 2.0 9.0 0.00 0.25 0.01 73 1011.5
20240614082724 63 175 3.0 9.0 0.00 0.25 0.01 71 1011.6
20240614081824 63 167 3.0 9.0 0.00 0.25 0.01 70 1011.6
20240614080905 62 171 5.0 9.0 0.00 0.26 0.01 73 1011.6
20240614080025 61 167 4.0 10.0 0.00 0.26 0.01 73 1011.6
20240614075403 61 166 4.0 7.0 0.00 0.26 0.01 73 1011.6
20240614074503 61 172 3.0 8.0 0.00 0.26 0.01 73 1011.5
20240614073604 61 169 2.0 6.0 0.00 0.27 0.01 75 1011.5
20240614072703 61 172 3.0 8.0 0.00 0.28 0.01 74 1011.5
20240614071804 61 173 2.0 6.0 0.00 0.30 0.01 77 1011.5
20240614070904 60 161 2.0 6.0 0.00 0.32 0.01 80 1011.5
20240614070026 60 162 2.0 6.0 0.00 0.33 0.01 79 1011.4
20240614065425 60 162 3.0 5.0 0.00 0.37 0.01 78 1011.5
20240614064505 60 160 4.0 6.0 0.00 0.37 0.01 78 1011.5
20240614063604 60 161 2.0 6.0 0.00 0.37 0.01 79 1011.5
20240614062703 60 155 2.0 6.0 0.00 0.37 0.01 81 1011.4
20240614061803 60 156 2.0 5.0 0.00 0.37 0.01 81 1011.4
20240614060904 59 191 1.0 4.0 0.00 0.37 0.01 80 1011.4
20240614060025 59 185 1.0 4.0 0.00 0.37 0.01 83 1011.4
20240614055403 58 180 1.0 4.0 0.00 0.37 0.01 83 1011.4
20240614054504 58 178 1.0 3.0 0.00 0.37 0.01 84 1011.4
20240614053605 58 178 1.0 3.0 0.00 0.37 0.01 85 1011.5
20240614052703 58 276 1.0 3.0 0.00 0.37 0.01 84 1011.4
20240614051825 57 308 0.0 2.0 0.00 0.37 0.01 87 1011.3
20240614050904 56 308 0.0 2.0 0.00 0.37 0.01 88 1011.3
20240614050004 56 308 1.0 2.0 0.00 0.37 0.01 90 1011.2
20240614045404 55 308 2.0 3.0 0.00 0.37 0.01 92 1011.2
20240614044504 54 308 2.0 4.0 0.00 0.37 0.01 95 1011.1
20240614043604 53 308 2.0 4.0 0.00 0.37 0.01 96 1011.1
20240614042703 51 308 0.0 3.0 0.00 0.37 0.01 95 1011.2
20240614041804 50 308 1.0 3.0 0.00 0.37 0.01 95 1011.1
20240614040903 50 308 1.0 3.0 0.00 0.37 0.01 95 1011.2
20240614040004 49 309 0.0 2.0 0.00 0.37 0.01 95 1011.2
20240614035425 49 316 1.0 3.0 0.00 0.37 0.01 95 1011.2
20240614034505 48 341 1.0 3.0 0.00 0.37 0.01 95 1011.0
20240614033603 48 344 0.0 2.0 0.00 0.37 0.01 95 1010.9
20240614032704 47 0 0.0 0.0 0.00 0.37 0.01 95 1010.9
20240614031824 47 344 0.0 1.0 0.00 0.37 0.01 95 1010.8
20240614030903 47 344 0.0 1.0 0.00 0.37 0.01 95 1010.9
20240614030003 46 344 0.0 2.0 0.00 0.37 0.01 95 1010.8
20240614025404 46 344 0.0 2.0 0.00 0.37 0.01 95 1010.8
20240614024504 45 0 0.0 0.0 0.00 0.37 0.01 95 1010.7
20240614023604 44 344 0.0 1.0 0.00 0.37 0.01 94 1010.9
20240614022705 44 0 0.0 0.0 0.00 0.37 0.01 94 1010.9
20240614021803 44 344 0.0 1.0 0.00 0.37 0.01 95 1011.0
20240614020924 44 344 1.0 2.0 0.00 0.37 0.01 94 1011.0
20240614020004 44 344 0.0 2.0 0.00 0.37 0.01 94 1011.0
20240614015403 44 344 0.0 1.0 0.00 0.37 0.01 94 1011.0
20240614014504 44 344 0.0 1.0 0.00 0.37 0.01 94 1010.9
20240614013625 44 0 0.0 0.0 0.00 0.37 0.01 94 1010.9
20240614012725 44 0 0.0 0.0 0.00 0.37 0.01 95 1010.8
20240614011803 44 344 0.0 1.0 0.00 0.37 0.01 95 1010.8
20240614010904 43 344 0.0 2.0 0.00 0.37 0.01 94 1010.7
20240614010024 42 0 0.0 0.0 0.00 0.37 0.01 94 1010.7
20240614005425 42 0 0.0 0.0 0.00 0.37 0.01 93 1010.8
20240614004504 42 0 0.0 0.0 0.00 0.37 0.01 93 1010.6
20240614003603 43 0 0.0 0.0 0.00 0.37 0.01 93 1010.7
20240614002705 44 344 1.0 2.0 0.00 0.37 0.01 93 1010.7
20240614001804 44 344 1.0 2.0 0.00 0.37 0.01 94 1010.6
20240614000903 44 13 2.0 4.0 0.00 0.37 0.01 95 1010.7
20240614000004 43 66 2.0 3.0 0.00 0.37 0.01 94 1010.6
20240613235405 43 66 1.0 3.0 0.00 0.37 0.01 94 1010.7
20240613234526 43 0 0.0 0.0 0.00 0.37 0.01 94 1010.8
20240613233603 42 0 0.0 0.0 0.01 0.37 0.01 92 1010.8
20240613232704 44 66 0.0 2.0 0.01 0.37 0.01 93 1010.7
20240613231805 43 66 1.0 2.0 0.01 0.37 0.01 92 1010.7
20240613230905 45 66 0.0 3.0 0.01 0.37 0.01 93 1010.7
20240613230004 46 66 1.0 1.0 0.01 0.37 0.01 93 1010.7
20240613225405 46 66 0.0 1.0 0.01 0.37 0.01 93 1010.8
20240613224526 46 69 0.0 4.0 0.01 0.37 0.01 93 1010.7
20240613223603 46 6 2.0 5.0 0.00 0.36 0.00 94 1010.8
20240613222704 46 325 2.0 3.0 0.00 0.36 0.00 93 1010.7
20240613221805 45 325 1.0 2.0 0.00 0.36 0.00 93 1010.7
20240613220905 46 325 1.0 2.0 0.00 0.36 0.00 93 1010.7
20240613220005 46 325 1.0 2.0 0.00 0.36 0.00 91 1010.7
20240613215405 46 325 1.0 2.0 0.00 0.36 0.00 92 1010.6
20240613214505 47 325 0.0 2.0 0.00 0.36 0.00 92 1010.6
20240613213624 47 325 1.0 2.0 0.00 0.36 0.00 93 1010.6
20240613212704 48 325 3.0 3.0 0.00 0.36 0.00 92 1010.5
20240613211804 48 325 3.0 4.0 0.00 0.36 0.00 92 1010.5
20240613210905 48 325 2.0 3.0 0.00 0.36 0.00 91 1010.5
20240613210006 48 325 3.0 4.0 0.00 0.36 0.00 91 1010.5
20240613205405 48 325 3.0 4.0 0.00 0.36 0.36 91 1010.5
20240613204505 49 325 3.0 4.0 0.01 0.36 0.36 91 1010.5
20240613203603 49 322 1.0 3.0 0.08 0.36 0.36 90 1010.5
20240613202703 50 322 1.0 2.0 0.13 0.36 0.36 90 1010.4
20240613201803 50 351 1.0 4.0 0.19 0.36 0.36 89 1010.4
20240613200926 51 13 0.0 2.0 0.21 0.36 0.36 90 1010.3
20240613200005 51 350 1.0 4.0 0.23 0.36 0.36 89 1010.3
20240613195425 52 344 3.0 6.0 0.23 0.36 0.36 89 1010.4
20240613194526 52 339 2.0 6.0 0.21 0.35 0.35 87 1010.5
20240613193625 53 183 1.0 5.0 0.14 0.28 0.28 86 1010.7
20240613192724 54 249 2.0 5.0 0.09 0.23 0.23 86 1010.8
20240613191804 54 279 4.0 8.0 0.03 0.16 0.16 85 1010.7
20240613190905 55 287 1.0 7.0 0.01 0.14 0.14 85 1010.6
20240613190004 55 327 1.0 4.0 0.00 0.13 0.13 84 1010.5
20240613185405 55 333 1.0 2.0 0.00 0.13 0.13 85 1010.4
20240613184505 54 0 0.0 0.0 0.00 0.13 0.13 85 1010.4
20240613183603 54 0 0.0 0.0 0.00 0.13 0.13 84 1010.2
20240613182703 54 0 0.0 0.0 0.00 0.13 0.13 82 1010.3